This is the latest recevied weather packets stored in our database for station/object OE-11331. If no packets are shown the sender has not sent any weather packets the latest 10 day(s).
| Time | Temp. | Humidity | Pressure | Rain* | Wind** | Luminosity | Snow |
|---|---|---|---|---|---|---|---|
| 1788038734 | 18.33° C | 74% | 1017.1 hPa | 0 mm | - | 0 W/m² | - |
| 1788037907 | 18.33° C | 72% | 1017 hPa | 0 mm | - | 0 W/m² | - |
| 1788037533 | 18.33° C | 72% | 1017 hPa | 0 mm | - | 0 W/m² | - |
| 1788036934 | 18.33° C | 72% | 1017 hPa | 0 mm | - | 0 W/m² | - |
| 1788036107 | 19.44° C | 68% | 1016.5 hPa | 0 mm | - | 0 W/m² | - |
| 1788035733 | 19.44° C | 67% | 1016.5 hPa | 0 mm | - | 0 W/m² | - |
| 1788035134 | 19.44° C | 70% | 1016.5 hPa | 0 mm | - | 0 W/m² | - |
| 1788034307 | 20° C | 61% | 1016.2 hPa | 0 mm | - | 0 W/m² | - |
| 1788033934 | 20° C | 67% | 1016.2 hPa | 0 mm | - | 0 W/m² | - |
| 1788033334 | 20° C | 67% | 1016.3 hPa | 0 mm | - | 0 W/m² | - |
| 1788032507 | 20° C | 66% | 1016.1 hPa | 0 mm | - | 0 W/m² | - |
| 1788032134 | 20° C | 68% | 1016 hPa | 0 mm | - | 0 W/m² | - |
| 1788031534 | 20.56° C | 65% | 1016 hPa | 0 mm | - | 0 W/m² | - |
| 1788030707 | 20° C | 63% | 1016 hPa | 0 mm | - | 0 W/m² | - |
| 1788030334 | 20° C | 64% | 1015.9 hPa | 0 mm | - | 0 W/m² | - |
| 1788029734 | 21.11° C | 58% | 1015.7 hPa | 0 mm | - | 0 W/m² | - |
| 1788028908 | 22.22° C | 54% | 1015.3 hPa | 0 mm | - | 0 W/m² | - |
| 1788028534 | 22.78° C | 54% | 1015.1 hPa | 0 mm | - | 0 W/m² | - |
| 1788027934 | 22.78° C | 55% | 1014.9 hPa | 0 mm | - | 0 W/m² | - |
| 1788027107 | 22.78° C | 54% | 1014.7 hPa | 0 mm | - | 0 W/m² | - |
| 1788026734 | 22.78° C | 56% | 1014.5 hPa | 0 mm | - | 11 W/m² | - |
| 1788026134 | 23.33° C | 55% | 1014.5 hPa | 0 mm | - | 11 W/m² | - |
| 1788025307 | 23.33° C | 56% | 1014.5 hPa | 0 mm | - | 11 W/m² | - |
| 1788024934 | 23.33° C | 54% | 1014.4 hPa | 0 mm | - | 32 W/m² | - |
| 1788024334 | 23.89° C | 54% | 1014.3 hPa | 0 mm | - | 54 W/m² | - |
* Rain latest hour (hover to see other rain measurements)
** Current wind speed in m/s (hover to see current wind gust speed)